createdAt,value
2022-09-10T00:01:20.218Z,18.14
2022-09-10T00:03:49.663Z,18.11
2022-09-10T00:06:19.718Z,18.11
2022-09-10T00:08:47.845Z,18.13
2022-09-10T00:11:21.272Z,18.09
2022-09-10T00:13:49.799Z,18.10
2022-09-10T00:16:21.311Z,18.08
2022-09-10T00:18:49.318Z,18.02
2022-09-10T00:21:19.200Z,18.08
2022-09-10T00:23:46.502Z,18.03
2022-09-10T00:26:22.382Z,18.08
2022-09-10T00:29:00.204Z,18.14
2022-09-10T00:31:30.081Z,18.14
2022-09-10T00:33:59.645Z,18.07
2022-09-10T00:36:30.074Z,18.10
2022-09-10T00:39:00.905Z,18.09
2022-09-10T00:41:29.149Z,18.07
2022-09-10T00:44:05.334Z,18.06
2022-09-10T00:46:44.094Z,18.07
2022-09-10T00:49:21.061Z,18.03
2022-09-10T00:51:52.177Z,18.07
2022-09-10T00:54:25.367Z,18.08
2022-09-10T00:56:55.659Z,18.03
2022-09-10T00:59:27.120Z,18.04
2022-09-10T01:02:00.310Z,18.06
2022-09-10T01:04:33.260Z,18.05
2022-09-10T01:07:01.735Z,18.04
2022-09-10T01:09:30.309Z,18.06
2022-09-10T01:12:17.452Z,17.99
2022-09-10T01:14:48.204Z,17.99
2022-09-10T01:17:22.100Z,17.98
2022-09-10T01:20:25.413Z,17.95
2022-09-10T01:23:17.721Z,17.95
2022-09-10T01:25:51.982Z,17.83
2022-09-10T01:28:35.220Z,17.89
2022-09-10T01:31:41.128Z,17.96
2022-09-10T01:34:19.681Z,17.90
2022-09-10T01:36:52.381Z,17.97
2022-09-10T01:39:24.479Z,17.89
2022-09-10T01:41:55.377Z,17.86
2022-09-10T01:44:47.928Z,17.90
2022-09-10T01:47:22.639Z,17.89
2022-09-10T01:50:02.829Z,17.81
2022-09-10T01:52:40.009Z,17.78
2022-09-10T01:55:23.026Z,17.75
2022-09-10T01:57:53.472Z,17.73
2022-09-10T02:00:24.904Z,17.67
2022-09-10T02:03:16.781Z,17.64
2022-09-10T02:05:51.341Z,17.60
2022-09-10T02:08:31.385Z,17.60
2022-09-10T02:11:01.888Z,17.59
2022-09-10T02:13:30.754Z,17.58
2022-09-10T02:16:00.155Z,17.55
2022-09-10T02:18:28.047Z,17.51
2022-09-10T02:20:58.846Z,17.49
2022-09-10T02:23:46.784Z,17.47
2022-09-10T02:26:17.403Z,17.43
2022-09-10T02:28:45.897Z,17.38
2022-09-10T02:31:14.278Z,17.36
2022-09-10T02:33:41.806Z,17.39
2022-09-10T02:36:09.637Z,17.41
2022-09-10T02:38:37.485Z,17.40
2022-09-10T02:41:05.517Z,17.35
2022-09-10T02:43:36.436Z,17.35
2022-09-10T02:46:08.042Z,17.32
2022-09-10T02:48:35.810Z,17.29
2022-09-10T02:51:03.591Z,17.28
2022-09-10T02:53:32.661Z,17.20
2022-09-10T02:56:01.489Z,17.22
2022-09-10T02:58:31.716Z,17.18
2022-09-10T03:01:19.474Z,17.18
2022-09-10T03:03:56.877Z,17.15
2022-09-10T03:06:26.252Z,17.16
2022-09-10T03:08:58.320Z,17.14
2022-09-10T03:11:28.464Z,17.12
2022-09-10T03:13:56.639Z,17.19
2022-09-10T03:16:24.793Z,17.19
2022-09-10T03:18:55.200Z,17.22
2022-09-10T03:21:25.826Z,17.24
2022-09-10T03:24:11.492Z,17.27
2022-09-10T03:26:40.954Z,17.24
2022-09-10T03:29:08.991Z,17.20
2022-09-10T03:31:36.659Z,17.23
2022-09-10T03:34:04.846Z,17.23
2022-09-10T03:36:31.871Z,17.24
2022-09-10T03:38:59.324Z,17.22
2022-09-10T03:41:38.100Z,17.16
2022-09-10T03:44:06.916Z,17.18
2022-09-10T03:46:34.862Z,17.15
2022-09-10T03:49:03.814Z,17.11
2022-09-10T03:51:32.216Z,17.11
2022-09-10T03:54:00.105Z,17.06
2022-09-10T03:56:28.758Z,17.08
2022-09-10T03:58:55.882Z,17.08
2022-09-10T04:01:22.959Z,17.11
2022-09-10T04:04:06.947Z,17.02
2022-09-10T04:06:35.817Z,16.91
2022-09-10T04:09:09.395Z,16.88
2022-09-10T04:11:36.612Z,16.88
2022-09-10T04:14:03.944Z,16.87
2022-09-10T04:16:32.871Z,16.94
2022-09-10T04:19:00.127Z,16.98
2022-09-10T04:21:28.816Z,16.99
2022-09-10T04:24:01.317Z,17.01
2022-09-10T04:26:28.522Z,17.04
2022-09-10T04:29:00.344Z,17.03
2022-09-10T04:31:27.439Z,17.08
2022-09-10T04:33:55.655Z,17.14
2022-09-10T04:36:22.690Z,17.22
2022-09-10T04:38:50.108Z,17.28
2022-09-10T04:41:20.197Z,17.29
2022-09-10T04:43:47.473Z,17.29
2022-09-10T04:46:14.616Z,17.34
2022-09-10T04:48:52.795Z,17.42
2022-09-10T04:51:31.061Z,17.53
2022-09-10T04:53:59.795Z,17.48
2022-09-10T04:56:26.793Z,17.59
2022-09-10T04:59:02.891Z,17.66
2022-09-10T05:01:30.786Z,17.73
2022-09-10T05:03:57.768Z,17.82
2022-09-10T05:06:25.562Z,17.94
2022-09-10T05:08:52.467Z,18.15
2022-09-10T05:11:20.014Z,18.34
2022-09-10T05:13:50.352Z,18.48
2022-09-10T05:16:17.813Z,18.67
2022-09-10T05:18:45.377Z,18.77
2022-09-10T05:21:13.035Z,18.81
2022-09-10T05:24:00.272Z,18.84
2022-09-10T05:26:31.054Z,19.02
2022-09-10T05:28:59.984Z,19.30
2022-09-10T05:31:28.573Z,19.60
2022-09-10T05:33:56.305Z,19.90
2022-09-10T05:36:23.256Z,20.21
2022-09-10T05:38:51.378Z,20.53
2022-09-10T05:44:33.641Z,21.53
2022-09-10T05:47:01.037Z,22.02
2022-09-10T05:49:30.510Z,22.48
2022-09-10T05:51:58.323Z,22.96
2022-09-10T05:54:25.813Z,23.33
2022-09-10T05:56:52.813Z,23.42
2022-09-10T05:59:21.019Z,23.39
2022-09-10T06:01:48.731Z,23.57
2022-09-10T06:05:53.184Z,23.61
2022-09-10T06:08:23.283Z,23.56
2022-09-10T06:11:02.912Z,23.67
2022-09-10T06:13:31.445Z,23.78
2022-09-10T06:16:06.310Z,23.99
2022-09-10T06:18:39.079Z,24.08
2022-09-10T06:21:18.831Z,24.11
2022-09-10T06:23:46.373Z,24.14
2022-09-10T06:26:14.525Z,24.18
2022-09-10T06:28:43.063Z,24.16
2022-09-10T06:31:17.338Z,24.20
2022-09-10T06:33:45.433Z,24.15
2022-09-10T06:36:13.023Z,24.18
2022-09-10T06:38:40.919Z,24.20
2022-09-10T06:41:12.238Z,24.11
2022-09-10T06:43:41.762Z,24.16
2022-09-10T06:46:50.900Z,24.15
2022-09-10T06:49:03.967Z,24.21
2022-09-10T06:51:33.753Z,24.33
2022-09-10T06:54:10.976Z,24.47
2022-09-10T06:56:39.468Z,24.65
2022-09-10T06:59:08.128Z,24.84
2022-09-10T07:01:36.508Z,24.99
2022-09-10T07:04:04.510Z,25.16
2022-09-10T07:06:36.094Z,25.25
2022-09-10T07:09:05.397Z,25.29
2022-09-10T07:11:33.412Z,25.31
2022-09-10T07:14:02.439Z,25.32
2022-09-10T07:16:33.609Z,25.24
2022-09-10T07:19:03.940Z,25.25
2022-09-10T07:21:40.419Z,25.21
2022-09-10T07:24:13.251Z,25.17
2022-09-10T07:26:41.983Z,25.06
2022-09-10T07:29:10.756Z,25.02
2022-09-10T07:31:42.625Z,25.03
2022-09-10T07:34:10.829Z,24.97
2022-09-10T07:36:42.013Z,24.90
2022-09-10T07:39:15.113Z,24.86
2022-09-10T07:41:48.522Z,24.78
2022-09-10T07:44:16.703Z,24.73
2022-09-10T07:46:44.754Z,24.78
2022-09-10T07:49:16.164Z,24.85
2022-09-10T07:51:44.116Z,24.93
2022-09-10T07:54:12.632Z,25.18
2022-09-10T07:56:40.885Z,25.32
2022-09-10T07:59:09.105Z,25.29
2022-09-10T08:01:38.864Z,25.34
2022-09-10T08:04:27.669Z,25.38
2022-09-10T08:07:05.845Z,25.43
2022-09-10T08:09:34.814Z,25.40
2022-09-10T08:12:03.937Z,25.38
2022-09-10T08:14:34.199Z,25.46
2022-09-10T08:17:02.906Z,25.48
2022-09-10T08:19:31.730Z,25.46
2022-09-10T08:22:13.501Z,25.42
2022-09-10T08:24:42.586Z,25.46
2022-09-10T08:27:12.892Z,25.47
2022-09-10T08:29:42.097Z,25.58
2022-09-10T08:32:14.028Z,25.62
2022-09-10T08:34:45.595Z,25.56
2022-09-10T08:37:14.592Z,25.56
2022-09-10T08:39:43.783Z,25.58
2022-09-10T08:42:32.151Z,25.60
2022-09-10T08:45:08.080Z,25.65
2022-09-10T08:48:25.269Z,25.82
2022-09-10T08:51:17.071Z,25.79
2022-09-10T08:54:33.350Z,25.89
2022-09-10T08:56:54.566Z,26.04
2022-09-10T08:59:34.556Z,26.15
2022-09-10T09:02:47.172Z,26.57
2022-09-10T09:05:26.962Z,27.06
2022-09-10T09:07:59.416Z,27.36
2022-09-10T09:10:36.259Z,28.01
2022-09-10T09:13:29.048Z,28.50
2022-09-10T09:16:21.593Z,28.76
2022-09-10T09:18:49.810Z,28.99
2022-09-10T09:21:23.243Z,29.08
2022-09-10T09:24:17.237Z,29.20
2022-09-10T09:26:51.118Z,29.77
2022-09-10T09:29:28.814Z,29.88
2022-09-10T09:32:19.242Z,29.86
2022-09-10T09:35:24.898Z,30.25
2022-09-10T09:38:08.201Z,30.47
2022-09-10T09:40:57.320Z,30.66
2022-09-10T09:44:10.595Z,31.06
2022-09-10T09:46:39.591Z,31.42
2022-09-10T09:49:18.566Z,31.68
2022-09-10T09:51:49.926Z,31.79
2022-09-10T09:55:12.512Z,31.69
2022-09-10T09:57:33.354Z,31.68
2022-09-10T10:00:37.446Z,31.96
2022-09-10T10:03:22.107Z,31.73
2022-09-10T10:05:52.995Z,31.66
2022-09-10T10:08:31.588Z,31.70
2022-09-10T10:11:01.251Z,31.68
2022-09-10T10:13:48.903Z,31.76
2022-09-10T10:16:36.789Z,31.64
2022-09-10T10:19:25.364Z,31.76
2022-09-10T10:22:00.948Z,32.01
2022-09-10T10:24:33.592Z,32.06
2022-09-10T10:27:03.459Z,31.69
2022-09-10T10:29:32.116Z,31.45
2022-09-10T10:32:05.489Z,31.08
2022-09-10T10:34:57.238Z,30.84
2022-09-10T10:37:36.967Z,30.83
2022-09-10T10:40:20.530Z,30.78
2022-09-10T10:43:37.102Z,30.65
2022-09-10T10:46:38.175Z,30.66
2022-09-10T10:49:31.068Z,30.65
2022-09-10T10:52:36.935Z,30.69
2022-09-10T10:55:27.278Z,30.77
2022-09-10T10:58:17.880Z,30.81
2022-09-10T11:00:56.098Z,30.90
2022-09-10T11:03:59.129Z,31.01
2022-09-10T11:06:36.671Z,31.07
2022-09-10T11:09:18.174Z,31.07
2022-09-10T11:12:02.092Z,31.03
2022-09-10T11:15:20.019Z,30.96
2022-09-10T11:18:14.615Z,30.89
2022-09-10T11:21:09.432Z,30.87
2022-09-10T11:23:52.699Z,30.76
2022-09-10T11:26:52.784Z,30.61
2022-09-10T11:29:45.138Z,30.59
2022-09-10T11:32:41.393Z,30.51
2022-09-10T11:35:23.947Z,30.38
2022-09-10T11:38:25.859Z,30.31
2022-09-10T11:41:28.831Z,30.09
2022-09-10T11:44:36.918Z,29.98
2022-09-10T11:47:24.643Z,29.91
2022-09-10T11:50:20.672Z,29.98
2022-09-10T11:52:58.865Z,29.97
2022-09-10T11:56:01.551Z,30.10
2022-09-10T11:59:04.477Z,30.08
2022-09-10T12:02:20.216Z,30.18
2022-09-10T12:04:49.390Z,30.20
2022-09-10T12:08:25.894Z,30.14
2022-09-10T12:11:42.404Z,30.15
2022-09-10T12:14:20.427Z,30.20
2022-09-10T12:17:07.816Z,30.19
2022-09-10T12:19:48.767Z,30.24
2022-09-10T12:22:34.313Z,30.27
2022-09-10T12:25:31.764Z,30.35
2022-09-10T12:28:08.897Z,30.36
2022-09-10T12:30:40.338Z,30.47
2022-09-10T12:33:18.396Z,30.61
2022-09-10T12:35:51.485Z,30.64
2022-09-10T12:38:59.537Z,30.61
2022-09-10T12:41:28.584Z,30.62
2022-09-10T12:44:03.722Z,30.69
2022-09-10T12:47:22.998Z,30.68
2022-09-10T12:49:54.727Z,30.73
2022-09-10T12:52:50.701Z,30.78
2022-09-10T12:56:05.527Z,30.71
2022-09-10T12:59:19.365Z,30.70
2022-09-10T13:01:57.331Z,30.73
2022-09-10T13:04:43.119Z,30.85
2022-09-10T13:07:56.569Z,31.02
2022-09-10T13:10:35.424Z,31.30
2022-09-10T13:13:25.746Z,31.49
2022-09-10T13:16:30.165Z,31.67
2022-09-10T13:19:15.219Z,31.77
2022-09-10T13:21:47.280Z,31.78
2022-09-10T13:24:37.896Z,31.78
2022-09-10T13:27:55.054Z,31.72
2022-09-10T13:30:28.711Z,31.62
2022-09-10T13:33:12.973Z,31.41
2022-09-10T13:36:33.739Z,31.12
2022-09-10T13:39:15.024Z,30.97
2022-09-10T13:42:15.517Z,30.93
2022-09-10T13:48:02.729Z,30.77
2022-09-10T13:50:59.654Z,30.65
2022-09-10T13:56:26.779Z,30.42
2022-09-10T13:59:03.195Z,30.28
2022-09-10T14:01:53.188Z,30.15
2022-09-10T14:04:31.956Z,30.00
2022-09-10T14:07:15.958Z,29.93
2022-09-10T14:09:57.711Z,29.80
2022-09-10T14:12:38.848Z,29.69
2022-09-10T14:15:12.247Z,29.53
2022-09-10T14:17:49.010Z,29.41
2022-09-10T14:23:26.581Z,29.16
2022-09-10T14:26:35.348Z,29.00
2022-09-10T14:29:24.772Z,28.85
2022-09-10T14:31:55.439Z,28.71
2022-09-10T14:34:37.212Z,28.57
2022-09-10T14:37:38.870Z,28.41
2022-09-10T14:40:36.977Z,28.22
2022-09-10T14:43:17.178Z,28.03
2022-09-10T14:45:51.263Z,27.89
2022-09-10T14:51:49.743Z,27.55
2022-09-10T14:54:30.318Z,27.36
2022-09-10T14:58:00.035Z,27.29
2022-09-10T15:00:35.194Z,27.12
2022-09-10T15:03:05.783Z,27.03
2022-09-10T15:05:41.385Z,26.94
2022-09-10T15:08:31.480Z,26.78
2022-09-10T15:11:01.564Z,26.55
2022-09-10T15:13:33.037Z,25.81
2022-09-10T15:16:10.662Z,25.05
2022-09-10T15:18:48.775Z,23.82
2022-09-10T15:21:29.219Z,23.20
2022-09-10T15:24:07.560Z,22.64
2022-09-10T15:27:05.929Z,22.08
2022-09-10T15:30:03.201Z,21.73
2022-09-10T15:32:32.376Z,21.46
2022-09-10T15:35:02.973Z,21.33
2022-09-10T15:37:36.262Z,21.23
2022-09-10T15:40:15.769Z,21.15
2022-09-10T15:42:54.146Z,21.30
2022-09-10T15:45:31.091Z,21.45
2022-09-10T15:48:04.645Z,21.46
2022-09-10T15:50:34.709Z,21.41
2022-09-10T15:53:11.910Z,21.35
2022-09-10T15:55:41.013Z,21.38
2022-09-10T16:00:59.804Z,21.36
2022-09-10T16:03:33.083Z,21.32
2022-09-10T16:06:06.727Z,21.30
2022-09-10T16:08:40.533Z,21.21
2022-09-10T16:11:14.107Z,21.23
2022-09-10T16:13:54.136Z,21.32
2022-09-10T16:16:27.258Z,21.28
2022-09-10T16:18:58.430Z,21.17
2022-09-10T16:21:34.352Z,21.15
2022-09-10T16:24:10.349Z,21.13
2022-09-10T16:26:48.009Z,21.07
2022-09-10T16:29:24.930Z,21.09
2022-09-10T16:31:58.219Z,21.11
2022-09-10T16:34:31.663Z,21.15
2022-09-10T16:37:01.645Z,21.14
2022-09-10T16:39:31.485Z,21.11
2022-09-10T16:42:16.410Z,21.08
2022-09-10T16:44:46.129Z,21.07
2022-09-10T16:47:15.741Z,20.95
2022-09-10T16:49:45.415Z,20.91
2022-09-10T16:52:15.208Z,20.87
2022-09-10T16:54:47.308Z,20.83
2022-09-10T16:57:16.855Z,20.82
2022-09-10T16:59:49.286Z,20.87
2022-09-10T17:02:21.865Z,20.89
2022-09-10T17:04:51.791Z,20.87
2022-09-10T17:10:03.401Z,20.74
2022-09-10T17:12:32.634Z,20.73
2022-09-10T17:15:01.631Z,20.79
2022-09-10T17:17:32.005Z,20.70
2022-09-10T17:20:02.070Z,20.75
2022-09-10T17:22:36.796Z,20.71
2022-09-10T17:25:05.727Z,20.74
2022-09-10T17:27:36.066Z,20.73
2022-09-10T17:30:05.015Z,20.73
2022-09-10T17:32:33.952Z,20.69
2022-09-10T17:35:03.063Z,20.67
2022-09-10T17:37:33.583Z,20.68
2022-09-10T17:40:02.746Z,20.66
2022-09-10T17:42:34.689Z,20.64
2022-09-10T17:45:05.681Z,20.77
2022-09-10T17:47:35.460Z,20.74
2022-09-10T17:50:04.502Z,20.66
2022-09-10T17:52:35.246Z,20.65
2022-09-10T17:55:04.309Z,20.65
2022-09-10T17:57:33.587Z,20.64
2022-09-10T18:00:02.677Z,20.73
2022-09-10T18:02:32.476Z,20.74
2022-09-10T18:05:01.931Z,20.75
2022-09-10T18:07:30.417Z,20.77
2022-09-10T18:09:59.248Z,20.77
2022-09-10T18:12:27.612Z,20.74
2022-09-10T18:14:56.486Z,20.65
2022-09-10T18:17:25.839Z,20.69
2022-09-10T18:20:00.398Z,20.67
2022-09-10T18:22:29.419Z,20.63
2022-09-10T18:24:57.996Z,20.63
2022-09-10T18:27:29.159Z,20.69
2022-09-10T18:29:58.500Z,20.65
2022-09-10T18:32:28.320Z,20.69
2022-09-10T18:34:56.791Z,20.74
2022-09-10T18:37:25.675Z,20.74
2022-09-10T18:39:55.326Z,20.71
2022-09-10T18:42:25.722Z,20.71
2022-09-10T18:44:54.417Z,20.76
2022-09-10T18:47:43.525Z,20.69
2022-09-10T18:50:12.167Z,20.67
2022-09-10T18:52:40.639Z,20.65
2022-09-10T18:55:10.307Z,20.62
2022-09-10T18:57:39.411Z,20.59
2022-09-10T19:00:11.563Z,20.64
2022-09-10T19:02:40.946Z,20.65
2022-09-10T19:05:12.384Z,20.67
2022-09-10T19:07:41.352Z,20.66
2022-09-10T19:10:10.027Z,20.74
2022-09-10T19:12:38.956Z,20.68
2022-09-10T19:15:08.342Z,20.66
2022-09-10T19:17:37.581Z,20.60
2022-09-10T19:20:06.913Z,20.55
2022-09-10T19:22:38.411Z,20.61
2022-09-10T19:25:07.770Z,20.64
2022-09-10T19:27:38.125Z,20.64
2022-09-10T19:30:07.562Z,20.64
2022-09-10T19:32:36.279Z,20.56
2022-09-10T19:35:05.379Z,20.60
2022-09-10T19:37:34.280Z,20.51
2022-09-10T19:40:05.766Z,20.51
2022-09-10T19:42:34.801Z,20.58
2022-09-10T19:45:13.844Z,20.64
2022-09-10T19:47:49.356Z,20.56
2022-09-10T19:50:23.123Z,20.48
2022-09-10T19:52:54.726Z,20.44
2022-09-10T19:55:24.955Z,20.43
2022-09-10T19:58:00.864Z,20.42
2022-09-10T20:00:45.810Z,20.42
2022-09-10T20:03:15.988Z,20.39
2022-09-10T20:05:45.519Z,20.42
2022-09-10T20:08:15.005Z,20.42
2022-09-10T20:10:54.822Z,20.42
2022-09-10T20:13:25.943Z,20.34
2022-09-10T20:15:57.991Z,20.27
2022-09-10T20:18:30.858Z,20.30
2022-09-10T20:21:17.072Z,20.32
2022-09-10T20:23:49.072Z,20.15
2022-09-10T20:26:23.645Z,20.11
2022-09-10T20:28:59.666Z,20.14
2022-09-10T20:31:30.904Z,20.03
2022-09-10T20:34:01.805Z,20.06
2022-09-10T20:36:34.778Z,19.96
2022-09-10T20:39:04.754Z,19.93
2022-09-10T20:41:36.352Z,19.87
2022-09-10T20:44:07.858Z,19.83
2022-09-10T20:46:36.390Z,19.73
2022-09-10T20:49:05.079Z,19.72
2022-09-10T20:51:39.606Z,19.71
2022-09-10T20:54:17.263Z,19.74
2022-09-10T20:56:46.610Z,19.76
2022-09-10T20:59:23.231Z,19.80
2022-09-10T21:01:54.673Z,19.78
2022-09-10T21:04:27.867Z,19.77
2022-09-10T21:06:57.832Z,19.74
2022-09-10T21:09:26.108Z,19.65
2022-09-10T21:11:55.077Z,19.57
2022-09-10T21:14:26.779Z,19.61
2022-09-10T21:16:55.930Z,19.65
2022-09-10T21:19:27.906Z,19.69
2022-09-10T21:21:59.384Z,19.72
2022-09-10T21:24:28.818Z,19.64
2022-09-10T21:26:57.046Z,19.58
2022-09-10T21:29:34.913Z,19.64
2022-09-10T21:32:04.644Z,19.64
2022-09-10T21:34:33.432Z,19.64
2022-09-10T21:37:01.908Z,19.65
2022-09-10T21:39:30.567Z,19.71
2022-09-10T21:42:02.522Z,19.70
2022-09-10T21:44:32.928Z,19.73
2022-09-10T21:47:01.825Z,19.69
2022-09-10T21:49:30.157Z,19.66
2022-09-10T21:52:07.304Z,19.70
2022-09-10T21:54:37.747Z,19.71
2022-09-10T21:57:12.025Z,19.66
2022-09-10T21:59:42.462Z,19.66
2022-09-10T22:02:11.844Z,19.60
2022-09-10T22:04:41.417Z,19.55
2022-09-10T22:07:11.460Z,19.56
2022-09-10T22:09:39.995Z,19.61
2022-09-10T22:12:08.409Z,19.60
2022-09-10T22:14:39.819Z,19.58
2022-09-10T22:17:15.402Z,19.63
2022-09-10T22:19:43.539Z,19.56
2022-09-10T22:22:12.406Z,19.50
2022-09-10T22:24:40.510Z,19.52
2022-09-10T22:27:09.503Z,19.48
2022-09-10T22:29:37.649Z,19.47
2022-09-10T22:32:06.397Z,19.38
2022-09-10T22:34:42.024Z,19.35
2022-09-10T22:37:10.493Z,19.31
2022-09-10T22:39:38.879Z,19.30
2022-09-10T22:42:08.639Z,19.28
2022-09-10T22:44:36.744Z,19.30
2022-09-10T22:47:14.747Z,19.23
2022-09-10T22:49:43.311Z,19.18
2022-09-10T22:52:12.884Z,19.24
2022-09-10T22:54:41.406Z,19.23
2022-09-10T22:57:10.075Z,19.21
2022-09-10T22:59:39.441Z,19.14
2022-09-10T23:02:07.618Z,19.08
2022-09-10T23:04:35.907Z,19.03
2022-09-10T23:07:07.121Z,19.03
2022-09-10T23:09:35.838Z,19.02
2022-09-10T23:12:04.925Z,18.91
2022-09-10T23:14:34.060Z,18.84
2022-09-10T23:17:02.532Z,18.81
2022-09-10T23:19:38.844Z,18.73
2022-09-10T23:22:07.598Z,18.73
2022-09-10T23:24:36.310Z,18.70
2022-09-10T23:27:05.110Z,18.69
2022-09-10T23:29:33.567Z,18.66
2022-09-10T23:32:02.147Z,18.59
2022-09-10T23:34:30.494Z,18.53
2022-09-10T23:36:58.905Z,18.51
2022-09-10T23:39:27.883Z,18.44
2022-09-10T23:41:59.489Z,18.42
2022-09-10T23:44:29.474Z,18.45
2022-09-10T23:46:58.717Z,18.45
2022-09-10T23:49:26.980Z,18.50
2022-09-10T23:51:55.246Z,18.45
2022-09-10T23:54:23.447Z,18.42
2022-09-10T23:56:52.284Z,18.34
2022-09-10T23:59:21.124Z,18.30
